sensor_id;sensor_type;location;lat;lon;timestamp;P1;P4;P2;P0;N10;N4;N25;N1;N05;TS
71550;SPS30;59367;48.414;9.872;2022-12-18T00:00:00;39.44533539;;35.67521667;;;;;;;
71550;SPS30;59367;48.414;9.872;2022-12-18T00:01:13;41.73617554;;37.43901443;;;;;;;
71550;SPS30;59367;48.414;9.872;2022-12-18T00:02:22;39.6895752;;35.8881073;;;;;;;
71550;SPS30;59367;48.414;9.872;2022-12-18T00:03:30;38.49422836;;35.46733475;;;;;;;
71550;SPS30;59367;48.414;9.872;2022-12-18T00:04:37;35.99163818;;33.41381454;;;;;;;
71550;SPS30;59367;48.414;9.872;2022-12-18T00:05:51;37.70146179;;34.53194809;;;;;;;
71550;SPS30;59367;48.414;9.872;2022-12-18T00:06:58;40.40435028;;36.96833801;;;;;;;
71550;SPS30;59367;48.414;9.872;2022-12-18T00:08:06;40.71772766;;36.27085876;;;;;;;
71550;SPS30;59367;48.414;9.872;2022-12-18T00:09:13;42.09137344;;37.90107727;;;;;;;
71550;SPS30;59367;48.414;9.872;2022-12-18T00:10:21;40.33575821;;36.67478561;;;;;;;
71550;SPS30;59367;48.414;9.872;2022-12-18T00:11:30;41.65346527;;37.91215515;;;;;;;
71550;SPS30;59367;48.414;9.872;2022-12-18T00:12:38;42.42031479;;38.64670563;;;;;;;
71550;SPS30;59367;48.414;9.872;2022-12-18T00:13:45;39.11841965;;35.75042725;;;;;;;
71550;SPS30;59367;48.414;9.872;2022-12-18T00:14:54;41.2735939;;38.40386581;;;;;;;
71550;SPS30;59367;48.414;9.872;2022-12-18T00:16:05;41.35480881;;38.21706772;;;;;;;
71550;SPS30;59367;48.414;9.872;2022-12-18T00:17:14;39.78504944;;36.75097275;;;;;;;
71550;SPS30;59367;48.414;9.872;2022-12-18T00:18:21;42.34832764;;39.50756073;;;;;;;
71550;SPS30;59367;48.414;9.872;2022-12-18T00:19:29;38.94274902;;36.14440536;;;;;;;
71550;SPS30;59367;48.414;9.872;2022-12-18T00:20:39;39.51727676;;36.13313293;;;;;;;
71550;SPS30;59367;48.414;9.872;2022-12-18T00:21:47;41.89891434;;38.72117615;;;;;;;
71550;SPS30;59367;48.414;9.872;2022-12-18T00:22:54;38.15556717;;35.08966827;;;;;;;
71550;SPS30;59367;48.414;9.872;2022-12-18T00:24:02;38.55574799;;35.27697754;;;;;;;
71550;SPS30;59367;48.414;9.872;2022-12-18T00:25:10;36.03162384;;33.92585373;;;;;;;
71550;SPS30;59367;48.414;9.872;2022-12-18T00:26:18;36.20300293;;33.63488007;;;;;;;
71550;SPS30;59367;48.414;9.872;2022-12-18T00:27:27;39.21934509;;35.73403168;;;;;;;
71550;SPS30;59367;48.414;9.872;2022-12-18T00:28:35;37.51518631;;34.51597977;;;;;;;
71550;SPS30;59367;48.414;9.872;2022-12-18T00:29:42;39.29462051;;35.72842407;;;;;;;
71550;SPS30;59367;48.414;9.872;2022-12-18T00:30:51;42.11214447;;38.0518837;;;;;;;
71550;SPS30;59367;48.414;9.872;2022-12-18T00:32:07;38.59044647;;34.6632309;;;;;;;
71550;SPS30;59367;48.414;9.872;2022-12-18T00:33:15;42.95521927;;38.6758461;;;;;;;
71550;SPS30;59367;48.414;9.872;2022-12-18T00:34:22;37.86293411;;34.28816223;;;;;;;
71550;SPS30;59367;48.414;9.872;2022-12-18T00:35:30;37.74885941;;34.50936508;;;;;;;
71550;SPS30;59367;48.414;9.872;2022-12-18T00:36:38;39.373909;;36.23437881;;;;;;;
71550;SPS30;59367;48.414;9.872;2022-12-18T00:37:46;38.67834473;;34.87476349;;;;;;;
71550;SPS30;59367;48.414;9.872;2022-12-18T00:38:54;38.35293198;;35.22876358;;;;;;;
71550;SPS30;59367;48.414;9.872;2022-12-18T00:40:03;39.6907692;;36.59477997;;;;;;;
71550;SPS30;59367;48.414;9.872;2022-12-18T00:41:12;38.25933075;;34.33410263;;;;;;;
71550;SPS30;59367;48.414;9.872;2022-12-18T00:42:21;39.42887878;;35.80583572;;;;;;;
71550;SPS30;59367;48.414;9.872;2022-12-18T00:43:29;40.40463638;;36.06785965;;;;;;;
71550;SPS30;59367;48.414;9.872;2022-12-18T00:44:37;39.21278;;34.92654419;;;;;;;
71550;SPS30;59367;48.414;9.872;2022-12-18T00:45:45;39.69421005;;35.80329514;;;;;;;
71550;SPS30;59367;48.414;9.872;2022-12-18T00:46:52;42.7617836;;38.28282928;;;;;;;
71550;SPS30;59367;48.414;9.872;2022-12-18T00:47:59;39.52098465;;35.77399063;;;;;;;
71550;SPS30;59367;48.414;9.872;2022-12-18T00:49:07;38.01095581;;34.96841812;;;;;;;
71550;SPS30;59367;48.414;9.872;2022-12-18T00:50:15;38.77970886;;34.88631439;;;;;;;
71550;SPS30;59367;48.414;9.872;2022-12-18T00:51:23;40.19051743;;36.70801926;;;;;;;
71550;SPS30;59367;48.414;9.872;2022-12-18T00:52:31;45.19769669;;39.80014801;;;;;;;
71550;SPS30;59367;48.414;9.872;2022-12-18T00:53:38;38.38540268;;35.17430115;;;;;;;
71550;SPS30;59367;48.414;9.872;2022-12-18T00:54:46;40.37924957;;36.93277359;;;;;;;
71550;SPS30;59367;48.414;9.872;2022-12-18T00:55:54;39.7282753;;36.19351578;;;;;;;
71550;SPS30;59367;48.414;9.872;2022-12-18T00:57:01;38.2458725;;34.72436905;;;;;;;
71550;SPS30;59367;48.414;9.872;2022-12-18T00:58:09;38.23093414;;34.81338501;;;;;;;
71550;SPS30;59367;48.414;9.872;2022-12-18T00:59:18;39.72358704;;36.08523941;;;;;;;
71550;SPS30;59367;48.414;9.872;2022-12-18T01:00:25;40.35474014;;36.23880386;;;;;;;
71550;SPS30;59367;48.414;9.872;2022-12-18T01:01:33;39.63418961;;36.32433701;;;;;;;
71550;SPS30;59367;48.414;9.872;2022-12-18T01:02:41;39.68400574;;36.25976563;;;;;;;
71550;SPS30;59367;48.414;9.872;2022-12-18T01:03:48;39.14708328;;35.54238129;;;;;;;
71550;SPS30;59367;48.414;9.872;2022-12-18T01:04:56;40.79449081;;37.34347534;;;;;;;
71550;SPS30;59367;48.414;9.872;2022-12-18T01:06:09;39.88114929;;36.56344604;;;;;;;
71550;SPS30;59367;48.414;9.872;2022-12-18T01:07:18;46.84013367;;42.11249924;;;;;;;
71550;SPS30;59367;48.414;9.872;2022-12-18T01:08:25;40.75791931;;37.13951111;;;;;;;
71550;SPS30;59367;48.414;9.872;2022-12-18T01:09:33;42.98826981;;39.52665329;;;;;;;
71550;SPS30;59367;48.414;9.872;2022-12-18T01:10:43;41.53076935;;38.79187012;;;;;;;
71550;SPS30;59367;48.414;9.872;2022-12-18T01:11:50;43.11912918;;39.14039993;;;;;;;
71550;SPS30;59367;48.414;9.872;2022-12-18T01:12:58;43.08807373;;38.54139328;;;;;;;
71550;SPS30;59367;48.414;9.872;2022-12-18T01:14:06;41.96747589;;37.79135895;;;;;;;
71550;SPS30;59367;48.414;9.872;2022-12-18T01:15:13;46.59890366;;42.56988907;;;;;;;
71550;SPS30;59367;48.414;9.872;2022-12-18T01:16:23;44.85415649;;40.58603668;;;;;;;
71550;SPS30;59367;48.414;9.872;2022-12-18T01:17:31;47.6048317;;42.98626328;;;;;;;
71550;SPS30;59367;48.414;9.872;2022-12-18T01:18:39;47.60224533;;43.05366516;;;;;;;
71550;SPS30;59367;48.414;9.872;2022-12-18T01:19:47;46.48681641;;42.15019226;;;;;;;
71550;SPS30;59367;48.414;9.872;2022-12-18T01:20:54;48.40858078;;43.40088272;;;;;;;
71550;SPS30;59367;48.414;9.872;2022-12-18T01:22:02;56.90145493;;49.81190491;;;;;;;
71550;SPS30;59367;48.414;9.872;2022-12-18T01:23:09;44.82165527;;40.79139328;;;;;;;
71550;SPS30;59367;48.414;9.872;2022-12-18T01:24:17;42.04243851;;38.37876129;;;;;;;
71550;SPS30;59367;48.414;9.872;2022-12-18T01:25:24;41.21021271;;37.2678299;;;;;;;
71550;SPS30;59367;48.414;9.872;2022-12-18T01:26:32;44.06973267;;39.54948044;;;;;;;
71550;SPS30;59367;48.414;9.872;2022-12-18T01:27:39;42.92208481;;38.75220108;;;;;;;
71550;SPS30;59367;48.414;9.872;2022-12-18T01:28:47;45.73439407;;40.08972931;;;;;;;
71550;SPS30;59367;48.414;9.872;2022-12-18T01:29:54;44.68995667;;39.30301285;;;;;;;
71550;SPS30;59367;48.414;9.872;2022-12-18T01:31:12;45.03755569;;40.51564789;;;;;;;
71550;SPS30;59367;48.414;9.872;2022-12-18T01:32:22;47.57661819;;42.89929199;;;;;;;
71550;SPS30;59367;48.414;9.872;2022-12-18T01:33:30;43.4333725;;38.66431427;;;;;;;
71550;SPS30;59367;48.414;9.872;2022-12-18T01:34:38;42.88870621;;37.94280243;;;;;;;
71550;SPS30;59367;48.414;9.872;2022-12-18T01:35:45;49.06029129;;42.46560287;;;;;;;
71550;SPS30;59367;48.414;9.872;2022-12-18T01:36:53;46.7404213;;41.04833221;;;;;;;
71550;SPS30;59367;48.414;9.872;2022-12-18T01:38:00;44.29820633;;38.99435806;;;;;;;
71550;SPS30;59367;48.414;9.872;2022-12-18T01:39:10;43.17053986;;38.09013748;;;;;;;
71550;SPS30;59367;48.414;9.872;2022-12-18T01:40:18;45.65226364;;39.77582932;;;;;;;
71550;SPS30;59367;48.414;9.872;2022-12-18T01:41:27;43.63623047;;39.27784729;;;;;;;
71550;SPS30;59367;48.414;9.872;2022-12-18T01:42:37;44.47047043;;39.62120056;;;;;;;
71550;SPS30;59367;48.414;9.872;2022-12-18T01:43:52;47.53733444;;43.1799202;;;;;;;
71550;SPS30;59367;48.414;9.872;2022-12-18T01:45:05;45.04441071;;40.71038055;;;;;;;
71550;SPS30;59367;48.414;9.872;2022-12-18T01:46:25;45.12706757;;40.48703003;;;;;;;
71550;SPS30;59367;48.414;9.872;2022-12-18T01:47:38;48.23109436;;42.35085297;;;;;;;
71550;SPS30;59367;48.414;9.872;2022-12-18T01:48:48;44.20153427;;38.78876877;;;;;;;
71550;SPS30;59367;48.414;9.872;2022-12-18T01:50:00;42.90551758;;39.15335464;;;;;;;
71550;SPS30;59367;48.414;9.872;2022-12-18T01:51:10;46.2618103;;41.11567688;;;;;;;
71550;SPS30;59367;48.414;9.872;2022-12-18T01:52:18;45.72447205;;40.10194016;;;;;;;
71550;SPS30;59367;48.414;9.872;2022-12-18T01:53:27;44.12281036;;39.16873932;;;;;;;
71550;SPS30;59367;48.414;9.872;2022-12-18T01:54:35;45.45923615;;40.17489243;;;;;;;
71550;SPS30;59367;48.414;9.872;2022-12-18T01:55:44;46.33894348;;41.35200882;;;;;;;
71550;SPS30;59367;48.414;9.872;2022-12-18T01:56:54;47.38853455;;41.40929413;;;;;;;
71550;SPS30;59367;48.414;9.872;2022-12-18T01:58:01;47.17301559;;41.29344177;;;;;;;
71550;SPS30;59367;48.414;9.872;2022-12-18T01:59:09;47.41410828;;41.85831833;;;;;;;
71550;SPS30;59367;48.414;9.872;2022-12-18T02:00:19;49.30154037;;42.92782211;;;;;;;
71550;SPS30;59367;48.414;9.872;2022-12-18T02:01:28;50.75866699;;43.83301163;;;;;;;
71550;SPS30;59367;48.414;9.872;2022-12-18T02:02:36;45.15022659;;40.09124374;;;;;;;
71550;SPS30;59367;48.414;9.872;2022-12-18T02:03:46;47.63890839;;42.13181686;;;;;;;
71550;SPS30;59367;48.414;9.872;2022-12-18T02:04:54;47.08170319;;42.42790604;;;;;;;
71550;SPS30;59367;48.414;9.872;2022-12-18T02:06:04;51.0567894;;45.25381851;;;;;;;
71550;SPS30;59367;48.414;9.872;2022-12-18T02:07:19;47.6555748;;42.44055939;;;;;;;
71550;SPS30;59367;48.414;9.872;2022-12-18T02:08:35;48.8430481;;43.28253174;;;;;;;
71550;SPS30;59367;48.414;9.872;2022-12-18T02:09:50;48.19896698;;42.48107529;;;;;;;
71550;SPS30;59367;48.414;9.872;2022-12-18T02:11:04;47.46253967;;42.68691254;;;;;;;
71550;SPS30;59367;48.414;9.872;2022-12-18T02:12:17;48.75450897;;43.40863419;;;;;;;
71550;SPS30;59367;48.414;9.872;2022-12-18T02:13:29;50.52602768;;45.10907745;;;;;;;
71550;SPS30;59367;48.414;9.872;2022-12-18T02:14:43;43.19790649;;39.42803955;;;;;;;
71550;SPS30;59367;48.414;9.872;2022-12-18T02:15:59;43.41571045;;39.51791763;;;;;;;
71550;SPS30;59367;48.414;9.872;2022-12-18T02:17:11;48.03950119;;42.56629181;;;;;;;
71550;SPS30;59367;48.414;9.872;2022-12-18T02:18:23;51.24966812;;44.5920105;;;;;;;
71550;SPS30;59367;48.414;9.872;2022-12-18T02:19:52;45.7662735;;40.86170578;;;;;;;
71550;SPS30;59367;48.414;9.872;2022-12-18T02:21:12;45.23373413;;41.24399567;;;;;;;
71550;SPS30;59367;48.414;9.872;2022-12-18T02:22:33;49.40458298;;43.65135193;;;;;;;
71550;SPS30;59367;48.414;9.872;2022-12-18T02:23:51;53.93554306;;47.14598465;;;;;;;
71550;SPS30;59367;48.414;9.872;2022-12-18T02:25:16;50.33264923;;44.56426239;;;;;;;
71550;SPS30;59367;48.414;9.872;2022-12-18T02:26:34;50.6762619;;44.79955292;;;;;;;
71550;SPS30;59367;48.414;9.872;2022-12-18T02:27:45;49.45346069;;44.24570847;;;;;;;
71550;SPS30;59367;48.414;9.872;2022-12-18T02:28:56;52.19072342;;46.05115509;;;;;;;
71550;SPS30;59367;48.414;9.872;2022-12-18T02:30:09;53.0006752;;46.12408829;;;;;;;
71550;SPS30;59367;48.414;9.872;2022-12-18T02:31:18;53.5459404;;46.39573288;;;;;;;
71550;SPS30;59367;48.414;9.872;2022-12-18T02:32:39;55.10502625;;47.66396713;;;;;;;
71550;SPS30;59367;48.414;9.872;2022-12-18T02:33:50;52.52016449;;46.1999855;;;;;;;
71550;SPS30;59367;48.414;9.872;2022-12-18T02:35:03;54.9781723;;48.15730286;;;;;;;
71550;SPS30;59367;48.414;9.872;2022-12-18T02:36:15;50.89219284;;44.24829102;;;;;;;
71550;SPS30;59367;48.414;9.872;2022-12-18T02:37:24;51.2470665;;44.51254654;;;;;;;
71550;SPS30;59367;48.414;9.872;2022-12-18T02:38:34;50.51432037;;44.47080994;;;;;;;
71550;SPS30;59367;48.414;9.872;2022-12-18T02:39:43;50.91281891;;44.31153488;;;;;;;
71550;SPS30;59367;48.414;9.872;2022-12-18T02:40:52;51.3909874;;45.71660233;;;;;;;
71550;SPS30;59367;48.414;9.872;2022-12-18T02:42:01;53.70085144;;47.14369965;;;;;;;
71550;SPS30;59367;48.414;9.872;2022-12-18T02:43:14;49.02661133;;43.98075104;;;;;;;
71550;SPS30;59367;48.414;9.872;2022-12-18T02:44:22;52.15308762;;45.41750717;;;;;;;
71550;SPS30;59367;48.414;9.872;2022-12-18T02:45:29;56.51692963;;48.58751678;;;;;;;
71550;SPS30;59367;48.414;9.872;2022-12-18T02:46:37;50.15504074;;44.56131363;;;;;;;
71550;SPS30;59367;48.414;9.872;2022-12-18T02:47:49;55.202034;;48.51495743;;;;;;;
71550;SPS30;59367;48.414;9.872;2022-12-18T02:49:01;50.45157242;;44.83279419;;;;;;;
71550;SPS30;59367;48.414;9.872;2022-12-18T02:50:22;51.29063034;;45.23075867;;;;;;;
71550;SPS30;59367;48.414;9.872;2022-12-18T02:51:39;51.93643951;;45.1870079;;;;;;;
71550;SPS30;59367;48.414;9.872;2022-12-18T02:52:59;51.24157333;;45.27481461;;;;;;;
71550;SPS30;59367;48.414;9.872;2022-12-18T02:54:15;48.42464066;;43.05584335;;;;;;;
71550;SPS30;59367;48.414;9.872;2022-12-18T02:55:33;50.74006653;;44.39609146;;;;;;;
71550;SPS30;59367;48.414;9.872;2022-12-18T02:56:51;55.05145645;;47.87015915;;;;;;;
71550;SPS30;59367;48.414;9.872;2022-12-18T02:58:04;55.9904213;;48.53828049;;;;;;;
71550;SPS30;59367;48.414;9.872;2022-12-18T02:59:19;54.1303215;;46.38910294;;;;;;;
71550;SPS30;59367;48.414;9.872;2022-12-18T03:00:30;48.81349564;;42.77970505;;;;;;;
71550;SPS30;59367;48.414;9.872;2022-12-18T03:01:43;52.42877579;;45.47903061;;;;;;;
71550;SPS30;59367;48.414;9.872;2022-12-18T03:02:57;51.20973969;;44.51099014;;;;;;;
71550;SPS30;59367;48.414;9.872;2022-12-18T03:04:09;48.17889786;;42.91586685;;;;;;;
71550;SPS30;59367;48.414;9.872;2022-12-18T03:05:27;51.0230217;;44.18044281;;;;;;;
71550;SPS30;59367;48.414;9.872;2022-12-18T03:06:40;53.46693802;;45.50962448;;;;;;;
71550;SPS30;59367;48.414;9.872;2022-12-18T03:07:52;55.94029617;;47.64609146;;;;;;;
71550;SPS30;59367;48.414;9.872;2022-12-18T03:09:02;50.78084564;;44.09306335;;;;;;;
71550;SPS30;59367;48.414;9.872;2022-12-18T03:10:13;50.91932678;;44.38425827;;;;;;;
71550;SPS30;59367;48.414;9.872;2022-12-18T03:11:23;48.34558487;;43.22464371;;;;;;;
71550;SPS30;59367;48.414;9.872;2022-12-18T03:12:35;51.05762863;;44.25695038;;;;;;;
71550;SPS30;59367;48.414;9.872;2022-12-18T03:13:46;52.32874298;;44.87237549;;;;;;;
71550;SPS30;59367;48.414;9.872;2022-12-18T03:14:59;49.75533295;;44.23693466;;;;;;;
71550;SPS30;59367;48.414;9.872;2022-12-18T03:16:12;47.83052826;;41.80888748;;;;;;;
71550;SPS30;59367;48.414;9.872;2022-12-18T03:17:25;50.69722366;;43.81124496;;;;;;;
71550;SPS30;59367;48.414;9.872;2022-12-18T03:18:36;48.99192429;;43.30450439;;;;;;;
71550;SPS30;59367;48.414;9.872;2022-12-18T03:19:49;53.89149857;;47.36680222;;;;;;;
71550;SPS30;59367;48.414;9.872;2022-12-18T03:21:00;52.05735779;;45.37260056;;;;;;;
71550;SPS30;59367;48.414;9.872;2022-12-18T03:22:11;54.20848846;;47.11070633;;;;;;;
71550;SPS30;59367;48.414;9.872;2022-12-18T03:23:20;49.91140747;;44.14038849;;;;;;;
71550;SPS30;59367;48.414;9.872;2022-12-18T03:24:31;55.75141907;;47.69595337;;;;;;;
71550;SPS30;59367;48.414;9.872;2022-12-18T03:25:41;48.50973892;;42.42133331;;;;;;;
71550;SPS30;59367;48.414;9.872;2022-12-18T03:26:52;51.69747543;;43.9104538;;;;;;;
71550;SPS30;59367;48.414;9.872;2022-12-18T03:28:02;51.27775574;;44.40746307;;;;;;;
71550;SPS30;59367;48.414;9.872;2022-12-18T03:29:14;51.74629211;;44.38478088;;;;;;;
71550;SPS30;59367;48.414;9.872;2022-12-18T03:30:26;47.43620682;;41.16867447;;;;;;;
71550;SPS30;59367;48.414;9.872;2022-12-18T03:31:36;48.44380951;;42.1482048;;;;;;;
71550;SPS30;59367;48.414;9.872;2022-12-18T03:32:47;49.16588974;;43.16109848;;;;;;;
71550;SPS30;59367;48.414;9.872;2022-12-18T03:34:01;51.11587524;;44.99475861;;;;;;;
71550;SPS30;59367;48.414;9.872;2022-12-18T03:35:13;53.25035858;;46.05735779;;;;;;;
71550;SPS30;59367;48.414;9.872;2022-12-18T03:36:25;52.92989349;;46.26957321;;;;;;;
71550;SPS30;59367;48.414;9.872;2022-12-18T03:37:32;47.9145813;;41.48803329;;;;;;;
71550;SPS30;59367;48.414;9.872;2022-12-18T03:38:41;48.40379333;;42.36891937;;;;;;;
71550;SPS30;59367;48.414;9.872;2022-12-18T03:39:48;48.70489883;;42.73381042;;;;;;;
71550;SPS30;59367;48.414;9.872;2022-12-18T03:40:58;51.09274673;;45.12881851;;;;;;;
71550;SPS30;59367;48.414;9.872;2022-12-18T03:42:10;53.13799667;;47.20174408;;;;;;;
71550;SPS30;59367;48.414;9.872;2022-12-18T03:43:31;51.33241272;;45.52838516;;;;;;;
71550;SPS30;59367;48.414;9.872;2022-12-18T03:44:48;53.31261063;;46.51592255;;;;;;;
71550;SPS30;59367;48.414;9.872;2022-12-18T03:46:03;50.59124756;;44.44005203;;;;;;;
71550;SPS30;59367;48.414;9.872;2022-12-18T03:47:16;55.06581879;;46.96979523;;;;;;;
71550;SPS30;59367;48.414;9.872;2022-12-18T03:48:31;50.01815033;;44.05112076;;;;;;;
71550;SPS30;59367;48.414;9.872;2022-12-18T03:49:43;50.33943558;;43.66760635;;;;;;;
71550;SPS30;59367;48.414;9.872;2022-12-18T03:50:56;55.04658127;;47.68294525;;;;;;;
71550;SPS30;59367;48.414;9.872;2022-12-18T03:52:07;47.26564026;;41.80815887;;;;;;;
71550;SPS30;59367;48.414;9.872;2022-12-18T03:53:23;50.47029495;;44.42925262;;;;;;;
71550;SPS30;59367;48.414;9.872;2022-12-18T03:54:38;50.02999496;;44.02229309;;;;;;;
71550;SPS30;59367;48.414;9.872;2022-12-18T03:55:48;52.033638;;45.58430862;;;;;;;
71550;SPS30;59367;48.414;9.872;2022-12-18T03:56:58;48.36227798;;42.34567261;;;;;;;
71550;SPS30;59367;48.414;9.872;2022-12-18T03:58:10;50.58423233;;43.83442307;;;;;;;
71550;SPS30;59367;48.414;9.872;2022-12-18T03:59:22;51.25422287;;45.32775116;;;;;;;
71550;SPS30;59367;48.414;9.872;2022-12-18T04:00:31;54.44404984;;47.09302902;;;;;;;
71550;SPS30;59367;48.414;9.872;2022-12-18T04:01:40;50.29985046;;44.58969879;;;;;;;
71550;SPS30;59367;48.414;9.872;2022-12-18T04:02:51;46.18231964;;40.76823807;;;;;;;
71550;SPS30;59367;48.414;9.872;2022-12-18T04:04:01;48.90238953;;43.07027054;;;;;;;
71550;SPS30;59367;48.414;9.872;2022-12-18T04:05:10;53.36832428;;46.68096542;;;;;;;
71550;SPS30;59367;48.414;9.872;2022-12-18T04:06:20;51.15457535;;43.90078354;;;;;;;
71550;SPS30;59367;48.414;9.872;2022-12-18T04:07:29;51.47641754;;44.49587631;;;;;;;
71550;SPS30;59367;48.414;9.872;2022-12-18T04:08:37;53.43787003;;45.90175629;;;;;;;
71550;SPS30;59367;48.414;9.872;2022-12-18T04:09:46;47.44340897;;41.95426178;;;;;;;
71550;SPS30;59367;48.414;9.872;2022-12-18T04:10:56;48.42499924;;42.49198914;;;;;;;
71550;SPS30;59367;48.414;9.872;2022-12-18T04:12:03;50.65219498;;43.64626694;;;;;;;
71550;SPS30;59367;48.414;9.872;2022-12-18T04:13:12;52.4732132;;45.45856857;;;;;;;
71550;SPS30;59367;48.414;9.872;2022-12-18T04:14:24;51.05316162;;43.98570633;;;;;;;
71550;SPS30;59367;48.414;9.872;2022-12-18T04:15:32;51.3777504;;44.0426178;;;;;;;
71550;SPS30;59367;48.414;9.872;2022-12-18T04:16:42;51.17547226;;44.02116394;;;;;;;
71550;SPS30;59367;48.414;9.872;2022-12-18T04:17:50;49.4871521;;43.41051483;;;;;;;
71550;SPS30;59367;48.414;9.872;2022-12-18T04:18:57;54.10757065;;46.3856163;;;;;;;
71550;SPS30;59367;48.414;9.872;2022-12-18T04:20:05;50.56035995;;44.42440796;;;;;;;
71550;SPS30;59367;48.414;9.872;2022-12-18T04:21:13;51.82961273;;45.12559509;;;;;;;
71550;SPS30;59367;48.414;9.872;2022-12-18T04:22:20;52.34010696;;45.35950851;;;;;;;
71550;SPS30;59367;48.414;9.872;2022-12-18T04:23:28;54.85720062;;45.97605896;;;;;;;
71550;SPS30;59367;48.414;9.872;2022-12-18T04:24:35;51.16734695;;44.41613388;;;;;;;
71550;SPS30;59367;48.414;9.872;2022-12-18T04:25:43;48.06116486;;42.70708847;;;;;;;
71550;SPS30;59367;48.414;9.872;2022-12-18T04:26:51;51.13829803;;44.11143494;;;;;;;
71550;SPS30;59367;48.414;9.872;2022-12-18T04:27:58;53.15911865;;45.66186142;;;;;;;
71550;SPS30;59367;48.414;9.872;2022-12-18T04:29:06;51.13565826;;44.45941162;;;;;;;
71550;SPS30;59367;48.414;9.872;2022-12-18T04:30:14;50.39578247;;43.89972687;;;;;;;
71550;SPS30;59367;48.414;9.872;2022-12-18T04:31:21;49.69907379;;43.36405182;;;;;;;
71550;SPS30;59367;48.414;9.872;2022-12-18T04:32:29;48.78994751;;41.83213425;;;;;;;
71550;SPS30;59367;48.414;9.872;2022-12-18T04:33:36;51.82709122;;44.94335556;;;;;;;
71550;SPS30;59367;48.414;9.872;2022-12-18T04:34:43;50.80050278;;43.36566544;;;;;;;
71550;SPS30;59367;48.414;9.872;2022-12-18T04:35:51;54.45861816;;46.43175507;;;;;;;
71550;SPS30;59367;48.414;9.872;2022-12-18T04:36:58;52.11232758;;45.09408951;;;;;;;
71550;SPS30;59367;48.414;9.872;2022-12-18T04:38:06;58.12475967;;48.74394226;;;;;;;
71550;SPS30;59367;48.414;9.872;2022-12-18T04:39:14;60.20381546;;50.98998642;;;;;;;
71550;SPS30;59367;48.414;9.872;2022-12-18T04:40:21;60.07945633;;49.95048904;;;;;;;
71550;SPS30;59367;48.414;9.872;2022-12-18T04:41:29;56.73607635;;49.23970795;;;;;;;
71550;SPS30;59367;48.414;9.872;2022-12-18T04:42:36;53.19981766;;46.53895569;;;;;;;
71550;SPS30;59367;48.414;9.872;2022-12-18T04:43:44;58.95900726;;50.76231384;;;;;;;
71550;SPS30;59367;48.414;9.872;2022-12-18T04:44:51;57.22243118;;49.20107269;;;;;;;
71550;SPS30;59367;48.414;9.872;2022-12-18T04:46:04;55.67856216;;48.41160965;;;;;;;
71550;SPS30;59367;48.414;9.872;2022-12-18T04:47:12;57.93106461;;49.54087067;;;;;;;
71550;SPS30;59367;48.414;9.872;2022-12-18T04:48:20;57.61002731;;49.01681137;;;;;;;
71550;SPS30;59367;48.414;9.872;2022-12-18T04:49:27;51.07629395;;44.49383545;;;;;;;
71550;SPS30;59367;48.414;9.872;2022-12-18T04:50:35;53.22673798;;45.73535919;;;;;;;
71550;SPS30;59367;48.414;9.872;2022-12-18T04:51:42;54.99998093;;47.43188477;;;;;;;
71550;SPS30;59367;48.414;9.872;2022-12-18T04:52:50;47.07106781;;41.9139328;;;;;;;
71550;SPS30;59367;48.414;9.872;2022-12-18T04:53:57;50.98202133;;44.69285202;;;;;;;
71550;SPS30;59367;48.414;9.872;2022-12-18T04:55:05;49.77651978;;43.17663956;;;;;;;
71550;SPS30;59367;48.414;9.872;2022-12-18T04:56:14;48.78448486;;42.53637314;;;;;;;
71550;SPS30;59367;48.414;9.872;2022-12-18T04:57:22;47.03977585;;41.58430862;;;;;;;
71550;SPS30;59367;48.414;9.872;2022-12-18T04:58:29;49.19109726;;42.42047119;;;;;;;
71550;SPS30;59367;48.414;9.872;2022-12-18T04:59:37;43.7538147;;38.29272842;;;;;;;
71550;SPS30;59367;48.414;9.872;2022-12-18T05:00:44;51.54227066;;44.07644272;;;;;;;
71550;SPS30;59367;48.414;9.872;2022-12-18T05:01:52;45.68956757;;40.16961288;;;;;;;
71550;SPS30;59367;48.414;9.872;2022-12-18T05:02:59;51.14014435;;43.67149734;;;;;;;
71550;SPS30;59367;48.414;9.872;2022-12-18T05:04:07;48.39318085;;41.63357544;;;;;;;
71550;SPS30;59367;48.414;9.872;2022-12-18T05:05:15;45.33347702;;38.73981857;;;;;;;
71550;SPS30;59367;48.414;9.872;2022-12-18T05:06:23;46.42218399;;39.58691025;;;;;;;
71550;SPS30;59367;48.414;9.872;2022-12-18T05:07:30;42.8753624;;36.44331741;;;;;;;
71550;SPS30;59367;48.414;9.872;2022-12-18T05:08:38;39.62219238;;34.25873566;;;;;;;
71550;SPS30;59367;48.414;9.872;2022-12-18T05:09:45;42.45827866;;36.62395477;;;;;;;
71550;SPS30;59367;48.414;9.872;2022-12-18T05:10:53;39.75564575;;35.12010193;;;;;;;
71550;SPS30;59367;48.414;9.872;2022-12-18T05:12:06;39.33065033;;34.41560364;;;;;;;
71550;SPS30;59367;48.414;9.872;2022-12-18T05:13:13;36.84347916;;32.63156891;;;;;;;
71550;SPS30;59367;48.414;9.872;2022-12-18T05:14:21;38.32296753;;33.73881531;;;;;;;
71550;SPS30;59367;48.414;9.872;2022-12-18T05:15:30;34.57234192;;31.03614998;;;;;;;
71550;SPS30;59367;48.414;9.872;2022-12-18T05:16:37;38.70314789;;33.91931152;;;;;;;
71550;SPS30;59367;48.414;9.872;2022-12-18T05:17:45;38.37555313;;33.33287048;;;;;;;
71550;SPS30;59367;48.414;9.872;2022-12-18T05:18:52;41.74648285;;35.76052094;;;;;;;
71550;SPS30;59367;48.414;9.872;2022-12-18T05:20:00;37.7654953;;33.57273865;;;;;;;
71550;SPS30;59367;48.414;9.872;2022-12-18T05:21:07;39.6132164;;34.63960648;;;;;;;
71550;SPS30;59367;48.414;9.872;2022-12-18T05:22:15;40.79735565;;35.44934845;;;;;;;
71550;SPS30;59367;48.414;9.872;2022-12-18T05:23:23;38.45776749;;33.76853561;;;;;;;
71550;SPS30;59367;48.414;9.872;2022-12-18T05:24:31;42.18709183;;36.68781662;;;;;;;
71550;SPS30;59367;48.414;9.872;2022-12-18T05:25:38;39.46265793;;34.32073593;;;;;;;
71550;SPS30;59367;48.414;9.872;2022-12-18T05:26:46;39.10208511;;34.18231201;;;;;;;
71550;SPS30;59367;48.414;9.872;2022-12-18T05:27:53;39.91851807;;34.90680313;;;;;;;
71550;SPS30;59367;48.414;9.872;2022-12-18T05:29:01;43.48852539;;37.21226883;;;;;;;
71550;SPS30;59367;48.414;9.872;2022-12-18T05:30:09;41.46661377;;35.87038803;;;;;;;
71550;SPS30;59367;48.414;9.872;2022-12-18T05:31:17;42.05893707;;36.8054657;;;;;;;
71550;SPS30;59367;48.414;9.872;2022-12-18T05:32:25;40.74610138;;35.87610245;;;;;;;
71550;SPS30;59367;48.414;9.872;2022-12-18T05:33:33;44.29909897;;38.04824066;;;;;;;
71550;SPS30;59367;48.414;9.872;2022-12-18T05:34:41;42.67532349;;36.96172333;;;;;;;